sensor_id;sensor_type;location;lat;lon;timestamp;P1;durP1;ratioP1;P2;durP2;ratioP2
18822;SDS011;9540;51.550;7.980;2023-03-23T00:02:04;4.28;;;2.33;;
18822;SDS011;9540;51.550;7.980;2023-03-23T00:04:31;3.65;;;2.72;;
18822;SDS011;9540;51.550;7.980;2023-03-23T00:06:58;3.50;;;2.13;;
18822;SDS011;9540;51.550;7.980;2023-03-23T00:09:26;4.97;;;2.22;;
18822;SDS011;9540;51.550;7.980;2023-03-23T00:11:54;4.90;;;2.33;;
18822;SDS011;9540;51.550;7.980;2023-03-23T00:14:22;3.17;;;2.40;;
18822;SDS011;9540;51.550;7.980;2023-03-23T00:16:50;4.22;;;2.05;;
18822;SDS011;9540;51.550;7.980;2023-03-23T00:19:17;5.80;;;2.50;;
18822;SDS011;9540;51.550;7.980;2023-03-23T00:21:45;2.83;;;2.10;;
18822;SDS011;9540;51.550;7.980;2023-03-23T00:24:13;5.10;;;2.42;;
18822;SDS011;9540;51.550;7.980;2023-03-23T00:26:42;4.10;;;2.10;;
18822;SDS011;9540;51.550;7.980;2023-03-23T00:29:13;3.28;;;2.50;;
18822;SDS011;9540;51.550;7.980;2023-03-23T00:31:41;4.00;;;2.60;;
18822;SDS011;9540;51.550;7.980;2023-03-23T00:34:12;3.50;;;2.47;;
18822;SDS011;9540;51.550;7.980;2023-03-23T00:36:43;5.18;;;2.58;;
18822;SDS011;9540;51.550;7.980;2023-03-23T00:39:10;3.80;;;2.60;;
18822;SDS011;9540;51.550;7.980;2023-03-23T00:41:38;4.35;;;2.70;;
18822;SDS011;9540;51.550;7.980;2023-03-23T00:44:05;4.15;;;2.65;;
18822;SDS011;9540;51.550;7.980;2023-03-23T00:46:34;5.70;;;2.92;;
18822;SDS011;9540;51.550;7.980;2023-03-23T00:49:09;4.68;;;2.78;;
18822;SDS011;9540;51.550;7.980;2023-03-23T00:51:38;3.33;;;3.03;;
18822;SDS011;9540;51.550;7.980;2023-03-23T00:54:06;3.33;;;2.35;;
18822;SDS011;9540;51.550;7.980;2023-03-23T00:56:34;5.18;;;2.85;;
18822;SDS011;9540;51.550;7.980;2023-03-23T00:59:01;5.22;;;3.08;;
18822;SDS011;9540;51.550;7.980;2023-03-23T01:01:29;4.75;;;3.08;;
18822;SDS011;9540;51.550;7.980;2023-03-23T01:03:59;3.80;;;2.85;;
18822;SDS011;9540;51.550;7.980;2023-03-23T01:06:29;6.90;;;3.35;;
18822;SDS011;9540;51.550;7.980;2023-03-23T01:08:57;5.00;;;3.15;;
18822;SDS011;9540;51.550;7.980;2023-03-23T01:11:25;3.65;;;2.90;;
18822;SDS011;9540;51.550;7.980;2023-03-23T01:13:53;5.82;;;3.05;;
18822;SDS011;9540;51.550;7.980;2023-03-23T01:16:20;4.07;;;2.55;;
18822;SDS011;9540;51.550;7.980;2023-03-23T01:18:47;5.15;;;2.63;;
18822;SDS011;9540;51.550;7.980;2023-03-23T01:21:17;4.25;;;2.35;;
18822;SDS011;9540;51.550;7.980;2023-03-23T01:23:46;4.70;;;2.50;;
18822;SDS011;9540;51.550;7.980;2023-03-23T01:26:14;5.03;;;2.63;;
18822;SDS011;9540;51.550;7.980;2023-03-23T01:28:43;3.10;;;2.85;;
18822;SDS011;9540;51.550;7.980;2023-03-23T01:31:11;5.30;;;2.58;;
18822;SDS011;9540;51.550;7.980;2023-03-23T01:33:40;3.67;;;2.40;;
18822;SDS011;9540;51.550;7.980;2023-03-23T01:36:09;5.63;;;2.45;;
18822;SDS011;9540;51.550;7.980;2023-03-23T01:38:39;3.42;;;2.30;;
18822;SDS011;9540;51.550;7.980;2023-03-23T01:41:08;3.03;;;2.60;;
18822;SDS011;9540;51.550;7.980;2023-03-23T01:43:36;5.10;;;2.42;;
18822;SDS011;9540;51.550;7.980;2023-03-23T01:46:20;5.28;;;2.58;;
18822;SDS011;9540;51.550;7.980;2023-03-23T01:48:47;2.80;;;2.13;;
18822;SDS011;9540;51.550;7.980;2023-03-23T01:51:17;5.25;;;2.30;;
18822;SDS011;9540;51.550;7.980;2023-03-23T01:53:48;3.28;;;2.55;;
18822;SDS011;9540;51.550;7.980;2023-03-23T01:56:22;2.45;;;2.25;;
18822;SDS011;9540;51.550;7.980;2023-03-23T01:58:52;10.85;;;2.47;;
18822;SDS011;9540;51.550;7.980;2023-03-23T02:01:20;5.30;;;2.88;;
18822;SDS011;9540;51.550;7.980;2023-03-23T02:03:50;4.05;;;2.95;;
18822;SDS011;9540;51.550;7.980;2023-03-23T02:06:20;4.68;;;2.63;;
18822;SDS011;9540;51.550;7.980;2023-03-23T02:08:50;4.47;;;2.47;;
18822;SDS011;9540;51.550;7.980;2023-03-23T02:11:19;3.97;;;3.10;;
18822;SDS011;9540;51.550;7.980;2023-03-23T02:13:47;9.80;;;3.15;;
18822;SDS011;9540;51.550;7.980;2023-03-23T02:16:17;4.18;;;3.35;;
18822;SDS011;9540;51.550;7.980;2023-03-23T02:18:53;3.83;;;2.80;;
18822;SDS011;9540;51.550;7.980;2023-03-23T02:21:33;5.70;;;3.10;;
18822;SDS011;9540;51.550;7.980;2023-03-23T02:27:16;7.97;;;3.45;;
18822;SDS011;9540;51.550;7.980;2023-03-23T02:29:51;4.50;;;3.55;;
18822;SDS011;9540;51.550;7.980;2023-03-23T02:35:30;4.85;;;3.70;;
18822;SDS011;9540;51.550;7.980;2023-03-23T02:38:03;5.13;;;3.78;;
18822;SDS011;9540;51.550;7.980;2023-03-23T02:40:35;5.80;;;3.70;;
18822;SDS011;9540;51.550;7.980;2023-03-23T02:43:06;6.57;;;3.63;;
18822;SDS011;9540;51.550;7.980;2023-03-23T02:45:35;7.05;;;3.47;;
18822;SDS011;9540;51.550;7.980;2023-03-23T02:48:05;3.70;;;3.03;;
18822;SDS011;9540;51.550;7.980;2023-03-23T02:50:35;4.60;;;3.33;;
18822;SDS011;9540;51.550;7.980;2023-03-23T02:53:05;5.00;;;3.65;;
18822;SDS011;9540;51.550;7.980;2023-03-23T02:55:36;5.50;;;3.15;;
18822;SDS011;9540;51.550;7.980;2023-03-23T02:58:05;5.07;;;2.92;;
18822;SDS011;9540;51.550;7.980;2023-03-23T03:00:33;3.65;;;3.00;;
18822;SDS011;9540;51.550;7.980;2023-03-23T03:03:00;2.65;;;2.45;;
18822;SDS011;9540;51.550;7.980;2023-03-23T03:05:32;5.20;;;3.28;;
18822;SDS011;9540;51.550;7.980;2023-03-23T03:08:11;7.30;;;2.88;;
18822;SDS011;9540;51.550;7.980;2023-03-23T03:10:46;4.65;;;2.63;;
18822;SDS011;9540;51.550;7.980;2023-03-23T03:13:21;3.85;;;2.65;;
18822;SDS011;9540;51.550;7.980;2023-03-23T03:15:59;5.45;;;2.60;;
18822;SDS011;9540;51.550;7.980;2023-03-23T03:18:32;4.72;;;2.88;;
18822;SDS011;9540;51.550;7.980;2023-03-23T03:21:07;3.85;;;3.13;;
18822;SDS011;9540;51.550;7.980;2023-03-23T03:23:39;4.22;;;2.97;;
18822;SDS011;9540;51.550;7.980;2023-03-23T03:26:09;3.63;;;2.63;;
18822;SDS011;9540;51.550;7.980;2023-03-23T03:28:37;5.57;;;3.17;;
18822;SDS011;9540;51.550;7.980;2023-03-23T03:31:06;5.43;;;3.03;;
18822;SDS011;9540;51.550;7.980;2023-03-23T03:33:34;4.25;;;3.08;;
18822;SDS011;9540;51.550;7.980;2023-03-23T03:36:02;3.97;;;3.40;;
18822;SDS011;9540;51.550;7.980;2023-03-23T03:38:41;10.80;;;3.08;;
18822;SDS011;9540;51.550;7.980;2023-03-23T03:41:09;2.70;;;2.50;;
18822;SDS011;9540;51.550;7.980;2023-03-23T03:43:36;3.40;;;2.90;;
18822;SDS011;9540;51.550;7.980;2023-03-23T03:46:03;4.13;;;2.83;;
18822;SDS011;9540;51.550;7.980;2023-03-23T03:48:31;2.97;;;2.70;;
18822;SDS011;9540;51.550;7.980;2023-03-23T03:50:58;6.07;;;2.83;;
18822;SDS011;9540;51.550;7.980;2023-03-23T03:53:26;3.90;;;2.80;;
18822;SDS011;9540;51.550;7.980;2023-03-23T03:55:55;5.13;;;2.40;;
18822;SDS011;9540;51.550;7.980;2023-03-23T03:58:25;2.85;;;2.65;;
18822;SDS011;9540;51.550;7.980;2023-03-23T04:00:56;3.05;;;2.10;;
18822;SDS011;9540;51.550;7.980;2023-03-23T04:03:24;2.85;;;2.30;;
18822;SDS011;9540;51.550;7.980;2023-03-23T04:05:52;3.65;;;2.25;;
18822;SDS011;9540;51.550;7.980;2023-03-23T04:08:21;2.97;;;2.33;;
18822;SDS011;9540;51.550;7.980;2023-03-23T04:10:48;3.55;;;2.47;;
18822;SDS011;9540;51.550;7.980;2023-03-23T04:13:17;4.65;;;2.38;;
18822;SDS011;9540;51.550;7.980;2023-03-23T04:15:44;4.53;;;2.42;;
18822;SDS011;9540;51.550;7.980;2023-03-23T04:18:12;2.85;;;2.25;;
18822;SDS011;9540;51.550;7.980;2023-03-23T04:20:42;3.00;;;2.05;;
18822;SDS011;9540;51.550;7.980;2023-03-23T04:23:12;2.33;;;2.13;;
18822;SDS011;9540;51.550;7.980;2023-03-23T04:25:39;2.03;;;1.88;;
18822;SDS011;9540;51.550;7.980;2023-03-23T04:28:07;2.20;;;2.00;;
18822;SDS011;9540;51.550;7.980;2023-03-23T04:30:36;3.25;;;2.10;;
18822;SDS011;9540;51.550;7.980;2023-03-23T04:33:08;4.38;;;2.47;;
18822;SDS011;9540;51.550;7.980;2023-03-23T04:35:39;3.45;;;1.85;;
18822;SDS011;9540;51.550;7.980;2023-03-23T04:38:07;2.33;;;2.05;;
18822;SDS011;9540;51.550;7.980;2023-03-23T04:40:38;2.40;;;2.17;;
18822;SDS011;9540;51.550;7.980;2023-03-23T04:43:07;2.75;;;2.13;;
18822;SDS011;9540;51.550;7.980;2023-03-23T04:45:34;3.58;;;2.08;;
18822;SDS011;9540;51.550;7.980;2023-03-23T04:48:04;2.47;;;2.28;;
18822;SDS011;9540;51.550;7.980;2023-03-23T04:50:31;2.60;;;2.38;;
18822;SDS011;9540;51.550;7.980;2023-03-23T04:53:00;2.90;;;2.50;;
18822;SDS011;9540;51.550;7.980;2023-03-23T04:55:29;3.30;;;2.00;;
18822;SDS011;9540;51.550;7.980;2023-03-23T04:57:57;1.85;;;1.75;;
18822;SDS011;9540;51.550;7.980;2023-03-23T05:00:26;2.30;;;1.85;;
18822;SDS011;9540;51.550;7.980;2023-03-23T05:02:54;6.20;;;2.42;;
18822;SDS011;9540;51.550;7.980;2023-03-23T05:05:22;2.90;;;2.08;;
18822;SDS011;9540;51.550;7.980;2023-03-23T05:07:50;2.33;;;2.10;;
18822;SDS011;9540;51.550;7.980;2023-03-23T05:10:17;2.22;;;2.03;;
18822;SDS011;9540;51.550;7.980;2023-03-23T05:12:45;4.50;;;1.70;;
18822;SDS011;9540;51.550;7.980;2023-03-23T05:15:12;3.38;;;2.33;;
18822;SDS011;9540;51.550;7.980;2023-03-23T05:17:41;2.45;;;2.13;;
18822;SDS011;9540;51.550;7.980;2023-03-23T05:20:10;7.22;;;2.00;;
18822;SDS011;9540;51.550;7.980;2023-03-23T05:22:40;2.72;;;1.90;;
18822;SDS011;9540;51.550;7.980;2023-03-23T05:25:09;2.03;;;1.92;;
18822;SDS011;9540;51.550;7.980;2023-03-23T05:27:36;2.45;;;1.90;;
18822;SDS011;9540;51.550;7.980;2023-03-23T05:30:07;7.72;;;2.15;;
18822;SDS011;9540;51.550;7.980;2023-03-23T05:32:36;2.85;;;1.90;;
18822;SDS011;9540;51.550;7.980;2023-03-23T05:35:04;1.70;;;1.60;;
18822;SDS011;9540;51.550;7.980;2023-03-23T05:37:31;2.33;;;2.00;;
18822;SDS011;9540;51.550;7.980;2023-03-23T05:39:59;2.22;;;2.13;;
18822;SDS011;9540;51.550;7.980;2023-03-23T05:42:30;2.30;;;2.10;;
18822;SDS011;9540;51.550;7.980;2023-03-23T05:44:59;2.03;;;1.83;;
18822;SDS011;9540;51.550;7.980;2023-03-23T05:47:26;2.20;;;2.05;;
18822;SDS011;9540;51.550;7.980;2023-03-23T05:49:54;2.33;;;2.05;;
18822;SDS011;9540;51.550;7.980;2023-03-23T05:52:24;4.88;;;2.38;;
18822;SDS011;9540;51.550;7.980;2023-03-23T05:54:51;3.67;;;2.22;;
18822;SDS011;9540;51.550;7.980;2023-03-23T05:57:20;2.00;;;1.90;;
18822;SDS011;9540;51.550;7.980;2023-03-23T05:59:47;4.35;;;2.75;;
18822;SDS011;9540;51.550;7.980;2023-03-23T06:02:15;3.45;;;1.98;;
18822;SDS011;9540;51.550;7.980;2023-03-23T06:04:42;6.93;;;2.80;;
18822;SDS011;9540;51.550;7.980;2023-03-23T06:07:09;2.58;;;2.08;;
18822;SDS011;9540;51.550;7.980;2023-03-23T06:09:39;2.78;;;2.22;;
18822;SDS011;9540;51.550;7.980;2023-03-23T06:12:07;4.05;;;2.58;;
18822;SDS011;9540;51.550;7.980;2023-03-23T06:14:36;3.20;;;2.20;;
18822;SDS011;9540;51.550;7.980;2023-03-23T06:17:03;3.00;;;2.70;;
18822;SDS011;9540;51.550;7.980;2023-03-23T06:19:31;3.38;;;2.00;;
18822;SDS011;9540;51.550;7.980;2023-03-23T06:21:59;3.42;;;2.10;;
18822;SDS011;9540;51.550;7.980;2023-03-23T06:24:26;2.35;;;1.95;;
18822;SDS011;9540;51.550;7.980;2023-03-23T06:26:54;3.30;;;2.38;;
18822;SDS011;9540;51.550;7.980;2023-03-23T06:29:21;4.20;;;2.25;;
18822;SDS011;9540;51.550;7.980;2023-03-23T06:31:51;2.75;;;2.30;;
18822;SDS011;9540;51.550;7.980;2023-03-23T06:34:20;2.35;;;2.10;;
18822;SDS011;9540;51.550;7.980;2023-03-23T06:36:48;2.72;;;2.42;;
18822;SDS011;9540;51.550;7.980;2023-03-23T06:39:15;2.78;;;2.38;;
18822;SDS011;9540;51.550;7.980;2023-03-23T06:41:42;4.47;;;2.50;;
18822;SDS011;9540;51.550;7.980;2023-03-23T06:44:10;3.03;;;2.70;;
18822;SDS011;9540;51.550;7.980;2023-03-23T06:46:38;2.70;;;2.30;;
18822;SDS011;9540;51.550;7.980;2023-03-23T06:49:07;3.10;;;2.40;;
18822;SDS011;9540;51.550;7.980;2023-03-23T06:51:35;7.28;;;2.80;;
18822;SDS011;9540;51.550;7.980;2023-03-23T06:54:03;3.05;;;2.50;;
18822;SDS011;9540;51.550;7.980;2023-03-23T06:56:30;4.18;;;2.88;;
18822;SDS011;9540;51.550;7.980;2023-03-23T06:58:58;3.38;;;2.47;;
18822;SDS011;9540;51.550;7.980;2023-03-23T07:01:25;2.60;;;2.13;;
18822;SDS011;9540;51.550;7.980;2023-03-23T07:03:53;4.35;;;2.88;;
18822;SDS011;9540;51.550;7.980;2023-03-23T07:06:22;4.32;;;2.15;;
18822;SDS011;9540;51.550;7.980;2023-03-23T07:08:51;2.17;;;2.08;;
18822;SDS011;9540;51.550;7.980;2023-03-23T07:11:18;2.92;;;2.10;;
18822;SDS011;9540;51.550;7.980;2023-03-23T07:13:45;7.07;;;2.30;;
18822;SDS011;9540;51.550;7.980;2023-03-23T07:16:14;2.83;;;2.20;;
18822;SDS011;9540;51.550;7.980;2023-03-23T07:18:42;3.03;;;1.95;;
18822;SDS011;9540;51.550;7.980;2023-03-23T07:21:09;4.57;;;2.15;;
18822;SDS011;9540;51.550;7.980;2023-03-23T07:23:38;2.92;;;2.17;;
18822;SDS011;9540;51.550;7.980;2023-03-23T07:26:05;6.13;;;2.45;;
18822;SDS011;9540;51.550;7.980;2023-03-23T07:28:33;9.15;;;2.90;;
18822;SDS011;9540;51.550;7.980;2023-03-23T07:31:01;4.97;;;2.30;;
18822;SDS011;9540;51.550;7.980;2023-03-23T07:33:29;2.60;;;2.10;;
18822;SDS011;9540;51.550;7.980;2023-03-23T07:35:58;6.15;;;2.30;;
18822;SDS011;9540;51.550;7.980;2023-03-23T07:38:25;8.25;;;2.40;;
18822;SDS011;9540;51.550;7.980;2023-03-23T07:40:54;3.92;;;2.20;;
18822;SDS011;9540;51.550;7.980;2023-03-23T07:43:21;7.40;;;2.47;;
18822;SDS011;9540;51.550;7.980;2023-03-23T07:45:48;4.82;;;2.10;;
18822;SDS011;9540;51.550;7.980;2023-03-23T07:48:15;3.15;;;1.80;;
18822;SDS011;9540;51.550;7.980;2023-03-23T07:50:42;7.40;;;2.33;;
18822;SDS011;9540;51.550;7.980;2023-03-23T07:53:11;7.60;;;2.25;;
18822;SDS011;9540;51.550;7.980;2023-03-23T07:55:38;4.90;;;2.55;;
18822;SDS011;9540;51.550;7.980;2023-03-23T07:58:06;5.50;;;2.35;;
18822;SDS011;9540;51.550;7.980;2023-03-23T08:00:34;4.93;;;2.05;;
18822;SDS011;9540;51.550;7.980;2023-03-23T08:03:04;5.43;;;2.20;;
18822;SDS011;9540;51.550;7.980;2023-03-23T08:05:32;4.05;;;2.20;;
18822;SDS011;9540;51.550;7.980;2023-03-23T08:07:59;4.20;;;2.15;;
18822;SDS011;9540;51.550;7.980;2023-03-23T08:10:26;2.65;;;1.80;;
18822;SDS011;9540;51.550;7.980;2023-03-23T08:12:55;6.20;;;2.72;;
18822;SDS011;9540;51.550;7.980;2023-03-23T08:15:25;4.53;;;2.30;;
18822;SDS011;9540;51.550;7.980;2023-03-23T08:17:53;6.07;;;2.20;;
18822;SDS011;9540;51.550;7.980;2023-03-23T08:20:21;5.40;;;2.50;;
18822;SDS011;9540;51.550;7.980;2023-03-23T08:22:51;6.97;;;2.08;;
18822;SDS011;9540;51.550;7.980;2023-03-23T08:25:20;4.05;;;1.73;;
18822;SDS011;9540;51.550;7.980;2023-03-23T08:27:49;5.18;;;2.10;;
18822;SDS011;9540;51.550;7.980;2023-03-23T08:30:18;4.03;;;1.92;;
18822;SDS011;9540;51.550;7.980;2023-03-23T08:32:48;2.03;;;1.83;;
18822;SDS011;9540;51.550;7.980;2023-03-23T08:35:16;5.80;;;1.90;;
18822;SDS011;9540;51.550;7.980;2023-03-23T08:37:44;5.25;;;2.03;;
18822;SDS011;9540;51.550;7.980;2023-03-23T08:40:16;4.53;;;2.03;;
18822;SDS011;9540;51.550;7.980;2023-03-23T08:42:46;2.28;;;1.80;;
18822;SDS011;9540;51.550;7.980;2023-03-23T08:45:14;2.58;;;1.60;;
18822;SDS011;9540;51.550;7.980;2023-03-23T08:47:43;5.57;;;2.03;;
18822;SDS011;9540;51.550;7.980;2023-03-23T08:50:14;4.22;;;1.77;;
18822;SDS011;9540;51.550;7.980;2023-03-23T08:52:43;3.08;;;1.70;;
18822;SDS011;9540;51.550;7.980;2023-03-23T08:55:10;2.53;;;1.60;;
18822;SDS011;9540;51.550;7.980;2023-03-23T08:57:38;1.98;;;1.52;;
18822;SDS011;9540;51.550;7.980;2023-03-23T09:00:08;4.90;;;1.95;;
18822;SDS011;9540;51.550;7.980;2023-03-23T09:02:42;2.10;;;1.63;;
18822;SDS011;9540;51.550;7.980;2023-03-23T09:05:10;2.38;;;1.75;;
18822;SDS011;9540;51.550;7.980;2023-03-23T09:07:39;2.67;;;1.70;;
18822;SDS011;9540;51.550;7.980;2023-03-23T09:10:08;2.78;;;1.60;;
18822;SDS011;9540;51.550;7.980;2023-03-23T09:12:36;4.18;;;1.88;;
18822;SDS011;9540;51.550;7.980;2023-03-23T09:15:03;2.67;;;1.80;;
18822;SDS011;9540;51.550;7.980;2023-03-23T09:17:34;5.72;;;2.00;;
18822;SDS011;9540;51.550;7.980;2023-03-23T09:20:02;3.60;;;1.90;;
18822;SDS011;9540;51.550;7.980;2023-03-23T09:22:35;4.80;;;1.73;;
18822;SDS011;9540;51.550;7.980;2023-03-23T09:25:05;5.13;;;1.70;;
18822;SDS011;9540;51.550;7.980;2023-03-23T09:27:33;6.93;;;1.85;;
18822;SDS011;9540;51.550;7.980;2023-03-23T09:30:02;3.33;;;1.60;;
18822;SDS011;9540;51.550;7.980;2023-03-23T09:32:31;3.47;;;1.70;;
18822;SDS011;9540;51.550;7.980;2023-03-23T09:35:00;4.32;;;1.90;;
18822;SDS011;9540;51.550;7.980;2023-03-23T09:37:28;5.15;;;1.95;;
18822;SDS011;9540;51.550;7.980;2023-03-23T09:39:56;4.03;;;1.83;;
18822;SDS011;9540;51.550;7.980;2023-03-23T09:42:29;3.08;;;1.55;;
18822;SDS011;9540;51.550;7.980;2023-03-23T09:45:08;4.68;;;2.10;;
18822;SDS011;9540;51.550;7.980;2023-03-23T09:47:45;4.28;;;2.35;;
18822;SDS011;9540;51.550;7.980;2023-03-23T09:50:30;4.65;;;2.15;;
18822;SDS011;9540;51.550;7.980;2023-03-23T09:53:00;5.43;;;2.20;;
18822;SDS011;9540;51.550;7.980;2023-03-23T09:55:31;4.07;;;2.22;;
18822;SDS011;9540;51.550;7.980;2023-03-23T09:58:01;5.65;;;2.20;;
18822;SDS011;9540;51.550;7.980;2023-03-23T10:00:37;6.85;;;2.47;;
18822;SDS011;9540;51.550;7.980;2023-03-23T10:03:10;4.53;;;2.38;;
18822;SDS011;9540;51.550;7.980;2023-03-23T10:05:41;3.58;;;2.17;;
18822;SDS011;9540;51.550;7.980;2023-03-23T10:08:11;9.88;;;2.83;;
18822;SDS011;9540;51.550;7.980;2023-03-23T10:10:44;6.35;;;2.10;;
18822;SDS011;9540;51.550;7.980;2023-03-23T10:13:20;8.27;;;2.00;;
18822;SDS011;9540;51.550;7.980;2023-03-23T10:15:54;7.22;;;2.38;;
18822;SDS011;9540;51.550;7.980;2023-03-23T10:18:25;4.75;;;2.05;;
18822;SDS011;9540;51.550;7.980;2023-03-23T10:20:56;2.67;;;2.00;;
18822;SDS011;9540;51.550;7.980;2023-03-23T10:23:51;8.60;;;2.00;;
18822;SDS011;9540;51.550;7.980;2023-03-23T10:26:37;4.45;;;1.60;;
18822;SDS011;9540;51.550;7.980;2023-03-23T10:29:16;6.78;;;1.98;;
18822;SDS011;9540;51.550;7.980;2023-03-23T10:31:47;5.80;;;2.00;;
18822;SDS011;9540;51.550;7.980;2023-03-23T10:34:21;6.28;;;2.08;;
18822;SDS011;9540;51.550;7.980;2023-03-23T10:36:56;7.35;;;1.70;;
18822;SDS011;9540;51.550;7.980;2023-03-23T10:39:30;4.90;;;2.05;;
18822;SDS011;9540;51.550;7.980;2023-03-23T10:42:05;5.65;;;1.85;;
18822;SDS011;9540;51.550;7.980;2023-03-23T10:44:34;5.03;;;2.15;;
18822;SDS011;9540;51.550;7.980;2023-03-23T10:47:02;4.28;;;1.73;;
18822;SDS011;9540;51.550;7.980;2023-03-23T10:49:33;7.35;;;2.13;;
18822;SDS011;9540;51.550;7.980;2023-03-23T10:52:05;5.18;;;1.90;;
18822;SDS011;9540;51.550;7.980;2023-03-23T10:54:45;5.10;;;1.88;;
18822;SDS011;9540;51.550;7.980;2023-03-23T10:57:20;7.47;;;1.70;;
18822;SDS011;9540;51.550;7.980;2023-03-23T10:59:57;6.45;;;1.95;;
18822;SDS011;9540;51.550;7.980;2023-03-23T11:02:26;4.93;;;2.08;;
18822;SDS011;9540;51.550;7.980;2023-03-23T11:04:56;3.25;;;1.85;;
18822;SDS011;9540;51.550;7.980;2023-03-23T11:07:27;4.78;;;2.00;;
18822;SDS011;9540;51.550;7.980;2023-03-23T11:09:56;6.57;;;2.40;;
18822;SDS011;9540;51.550;7.980;2023-03-23T11:12:32;7.43;;;2.80;;
18822;SDS011;9540;51.550;7.980;2023-03-23T11:15:09;5.97;;;2.25;;
18822;SDS011;9540;51.550;7.980;2023-03-23T11:17:54;5.28;;;1.92;;
18822;SDS011;9540;51.550;7.980;2023-03-23T11:20:23;9.18;;;2.60;;
18822;SDS011;9540;51.550;7.980;2023-03-23T11:22:51;3.53;;;2.40;;
18822;SDS011;9540;51.550;7.980;2023-03-23T11:25:19;11.70;;;2.95;;
18822;SDS011;9540;51.550;7.980;2023-03-23T11:27:47;8.05;;;2.60;;
18822;SDS011;9540;51.550;7.980;2023-03-23T11:30:21;6.60;;;2.95;;
18822;SDS011;9540;51.550;7.980;2023-03-23T11:32:52;9.20;;;3.65;;
18822;SDS011;9540;51.550;7.980;2023-03-23T11:35:22;9.70;;;4.60;;
18822;SDS011;9540;51.550;7.980;2023-03-23T11:37:52;9.65;;;3.92;;
18822;SDS011;9540;51.550;7.980;2023-03-23T11:40:22;4.35;;;2.45;;
18822;SDS011;9540;51.550;7.980;2023-03-23T11:42:56;4.93;;;2.15;;
18822;SDS011;9540;51.550;7.980;2023-03-23T11:45:30;6.25;;;2.58;;
18822;SDS011;9540;51.550;7.980;2023-03-23T11:48:03;4.78;;;2.40;;
18822;SDS011;9540;51.550;7.980;2023-03-23T11:50:44;10.05;;;3.50;;
18822;SDS011;9540;51.550;7.980;2023-03-23T11:53:20;19.90;;;5.65;;
18822;SDS011;9540;51.550;7.980;2023-03-23T11:55:58;11.68;;;2.80;;
18822;SDS011;9540;51.550;7.980;2023-03-23T11:58:36;10.80;;;2.67;;
18822;SDS011;9540;51.550;7.980;2023-03-23T12:01:11;5.35;;;2.38;;
18822;SDS011;9540;51.550;7.980;2023-03-23T12:03:56;3.38;;;2.90;;
18822;SDS011;9540;51.550;7.980;2023-03-23T12:06:32;4.93;;;2.65;;
18822;SDS011;9540;51.550;7.980;2023-03-23T12:09:08;5.13;;;2.58;;
18822;SDS011;9540;51.550;7.980;2023-03-23T12:11:45;4.35;;;3.17;;
18822;SDS011;9540;51.550;7.980;2023-03-23T12:14:24;4.78;;;3.20;;
18822;SDS011;9540;51.550;7.980;2023-03-23T12:17:01;6.47;;;3.03;;
18822;SDS011;9540;51.550;7.980;2023-03-23T12:19:42;2.95;;;2.50;;
18822;SDS011;9540;51.550;7.980;2023-03-23T12:22:17;4.40;;;3.13;;
18822;SDS011;9540;51.550;7.980;2023-03-23T12:25:00;6.50;;;3.20;;
18822;SDS011;9540;51.550;7.980;2023-03-23T12:27:38;3.88;;;3.00;;
18822;SDS011;9540;51.550;7.980;2023-03-23T12:30:16;6.22;;;3.08;;
18822;SDS011;9540;51.550;7.980;2023-03-23T12:33:11;6.38;;;4.57;;
18822;SDS011;9540;51.550;7.980;2023-03-23T12:35:49;9.38;;;4.65;;
18822;SDS011;9540;51.550;7.980;2023-03-23T12:38:42;8.73;;;6.00;;
18822;SDS011;9540;51.550;7.980;2023-03-23T12:41:20;8.32;;;6.07;;
18822;SDS011;9540;51.550;7.980;2023-03-23T12:43:55;7.57;;;5.93;;
18822;SDS011;9540;51.550;7.980;2023-03-23T12:46:32;10.88;;;7.13;;
18822;SDS011;9540;51.550;7.980;2023-03-23T12:49:11;8.13;;;5.95;;
18822;SDS011;9540;51.550;7.980;2023-03-23T12:51:45;9.75;;;7.00;;
18822;SDS011;9540;51.550;7.980;2023-03-23T12:54:19;12.00;;;6.68;;
18822;SDS011;9540;51.550;7.980;2023-03-23T12:56:54;8.70;;;6.72;;
18822;SDS011;9540;51.550;7.980;2023-03-23T12:59:29;8.85;;;7.70;;
18822;SDS011;9540;51.550;7.980;2023-03-23T13:02:12;12.57;;;8.23;;
18822;SDS011;9540;51.550;7.980;2023-03-23T13:04:46;15.63;;;10.10;;
18822;SDS011;9540;51.550;7.980;2023-03-23T13:07:18;11.05;;;8.15;;
18822;SDS011;9540;51.550;7.980;2023-03-23T13:09:50;8.27;;;6.43;;
18822;SDS011;9540;51.550;7.980;2023-03-23T13:12:21;7.68;;;5.35;;
18822;SDS011;9540;51.550;7.980;2023-03-23T13:14:54;9.27;;;6.25;;
18822;SDS011;9540;51.550;7.980;2023-03-23T13:17:32;6.20;;;5.30;;
18822;SDS011;9540;51.550;7.980;2023-03-23T13:23:11;7.35;;;6.25;;
18822;SDS011;9540;51.550;7.980;2023-03-23T13:25:46;8.70;;;6.28;;
18822;SDS011;9540;51.550;7.980;2023-03-23T13:28:17;8.93;;;6.60;;
18822;SDS011;9540;51.550;7.980;2023-03-23T13:30:54;11.13;;;6.55;;
18822;SDS011;9540;51.550;7.980;2023-03-23T13:33:23;7.72;;;6.00;;
18822;SDS011;9540;51.550;7.980;2023-03-23T13:35:52;11.95;;;6.78;;
18822;SDS011;9540;51.550;7.980;2023-03-23T13:38:21;11.90;;;6.03;;
18822;SDS011;9540;51.550;7.980;2023-03-23T13:40:51;13.15;;;7.43;;
18822;SDS011;9540;51.550;7.980;2023-03-23T13:43:29;14.43;;;6.43;;
18822;SDS011;9540;51.550;7.980;2023-03-23T13:49:05;10.20;;;6.40;;
18822;SDS011;9540;51.550;7.980;2023-03-23T13:51:52;8.68;;;6.82;;
18822;SDS011;9540;51.550;7.980;2023-03-23T13:54:41;10.88;;;6.22;;
18822;SDS011;9540;51.550;7.980;2023-03-23T13:57:20;13.65;;;6.85;;
18822;SDS011;9540;51.550;7.980;2023-03-23T13:59:56;12.18;;;6.72;;
18822;SDS011;9540;51.550;7.980;2023-03-23T14:02:29;12.35;;;7.00;;
18822;SDS011;9540;51.550;7.980;2023-03-23T14:05:08;11.57;;;7.45;;
18822;SDS011;9540;51.550;7.980;2023-03-23T14:07:57;12.02;;;8.10;;
18822;SDS011;9540;51.550;7.980;2023-03-23T14:10:31;11.15;;;7.82;;
18822;SDS011;9540;51.550;7.980;2023-03-23T14:13:01;10.98;;;7.35;;
18822;SDS011;9540;51.550;7.980;2023-03-23T14:15:30;9.68;;;6.85;;
18822;SDS011;9540;51.550;7.980;2023-03-23T14:18:06;8.25;;;6.95;;
18822;SDS011;9540;51.550;7.980;2023-03-23T14:20:39;8.80;;;6.88;;
18822;SDS011;9540;51.550;7.980;2023-03-23T14:23:16;8.98;;;6.07;;
18822;SDS011;9540;51.550;7.980;2023-03-23T14:25:43;8.50;;;6.35;;
18822;SDS011;9540;51.550;7.980;2023-03-23T14:28:20;8.57;;;6.70;;
18822;SDS011;9540;51.550;7.980;2023-03-23T14:30:48;8.60;;;6.63;;
18822;SDS011;9540;51.550;7.980;2023-03-23T14:33:22;9.35;;;6.88;;
18822;SDS011;9540;51.550;7.980;2023-03-23T14:35:53;9.90;;;6.75;;
18822;SDS011;9540;51.550;7.980;2023-03-23T14:38:24;8.73;;;7.20;;
18822;SDS011;9540;51.550;7.980;2023-03-23T14:40:59;11.27;;;7.57;;
18822;SDS011;9540;51.550;7.980;2023-03-23T14:43:30;13.10;;;7.78;;
18822;SDS011;9540;51.550;7.980;2023-03-23T14:46:00;11.75;;;7.40;;
18822;SDS011;9540;51.550;7.980;2023-03-23T14:48:37;13.65;;;8.30;;
18822;SDS011;9540;51.550;7.980;2023-03-23T14:51:05;12.23;;;8.52;;
18822;SDS011;9540;51.550;7.980;2023-03-23T14:53:35;14.02;;;8.15;;
18822;SDS011;9540;51.550;7.980;2023-03-23T14:56:06;15.73;;;8.65;;
18822;SDS011;9540;51.550;7.980;2023-03-23T14:58:37;14.45;;;8.77;;
18822;SDS011;9540;51.550;7.980;2023-03-23T15:01:05;12.57;;;8.35;;
18822;SDS011;9540;51.550;7.980;2023-03-23T15:03:34;18.95;;;8.70;;
18822;SDS011;9540;51.550;7.980;2023-03-23T15:06:04;12.15;;;8.27;;
18822;SDS011;9540;51.550;7.980;2023-03-23T15:08:36;12.82;;;8.85;;
18822;SDS011;9540;51.550;7.980;2023-03-23T15:11:06;12.32;;;8.32;;
18822;SDS011;9540;51.550;7.980;2023-03-23T15:13:41;12.43;;;8.23;;
18822;SDS011;9540;51.550;7.980;2023-03-23T15:16:12;12.95;;;7.85;;
18822;SDS011;9540;51.550;7.980;2023-03-23T15:18:47;16.02;;;8.75;;
18822;SDS011;9540;51.550;7.980;2023-03-23T15:21:22;11.52;;;7.57;;
18822;SDS011;9540;51.550;7.980;2023-03-23T15:23:54;11.93;;;6.32;;
18822;SDS011;9540;51.550;7.980;2023-03-23T15:26:25;10.23;;;5.60;;
18822;SDS011;9540;51.550;7.980;2023-03-23T15:29:01;9.20;;;5.32;;
18822;SDS011;9540;51.550;7.980;2023-03-23T15:31:38;7.53;;;5.32;;
18822;SDS011;9540;51.550;7.980;2023-03-23T15:34:11;7.10;;;5.30;;
18822;SDS011;9540;51.550;7.980;2023-03-23T15:36:46;6.63;;;4.80;;